ADDS METAR Data INFO
IDs: Format: Raw Decoded Include TAF

Data at: 1820 UTC 24 Nov 2017

KDFW 241753Z 15006KT 10SM SCT250 22/02 A2989 RMK AO2 SLP116 T02170022 10217 20072 58015
KDFW 241653Z 16007KT 140V200 10SM SCT250 19/02 A2991 RMK AO2 SLP126 T01890017
KDFW 241553Z 17006KT 10SM SCT250 17/02 A2993 RMK AO2 SLP130 T01670017
KDFW 241453Z 18007KT 10SM SCT250 13/02 A2993 RMK AO2 SLP133 T01280017 55001
KDFW 241353Z 18006KT 10SM SCT250 09/02 A2993 RMK AO2 SLP132 T00940017
KDFW 241253Z 18008KT 10SM FEW250 07/01 A2993 RMK AO2 SLP133 T00720006 $
KDFW 241153Z 18005KT 10SM SCT250 08/01 A2993 RMK AO2 SLP134 T00830006 10106 20072 56008 $
KDFW 241053Z 17005KT 10SM SCT250 07/01 A2994 RMK AO2 SLP133 T00720006 $
KDFW 240953Z 19005KT 10SM SCT250 09/00 A2994 RMK AO2 SLP137 T00890000 $
KDFW 240853Z 18008KT 10SM SCT250 09/01 A2996 RMK AO2 SLP141 T00940006 57018 $
KDFW 240753Z 19006KT 10SM SCT250 09/00 A2998 RMK AO2 SLP148 T00940000 $
KDFW 240653Z 18007KT 10SM SCT250 09/00 A2999 RMK AO2 SLP153 T00940000 $
KDFW 240553Z 18006KT 10SM SCT250 10/00 A3001 RMK AO2 SLP159 T01000000 10167 20100 402060017 58005 $
KDFW 240453Z 18007KT 10SM SCT250 11/00 A3003 RMK AO2 SLP166 T01110000 $
KDFW 240353Z 18005KT 10SM FEW250 13/M01 A3003 RMK AO2 SLP166 T01281006 $
KDFW 240253Z 16004KT 10SM FEW250 12/00 A3003 RMK AO2 SLP167 T01170000 50001 $
KDFW 240153Z 15006KT 10SM FEW250 13/00 A3003 RMK AO2 SLP169 T01330000 $
KDFW 240053Z 14006KT 10SM FEW250 14/00 A3003 RMK AO2 SLP166 T01440000 $
KDFW 232353Z 15005KT 10SM FEW250 17/M01 A3002 RMK AO2 SLP165 T01671011 10206 20161 58006 $
KDFW 232253Z 15006KT 10SM FEW250 19/M01 A3003 RMK AO2 SLP167 T01891011 $
KDFW 232153Z 14004KT 10SM SCT250 21/M02 A3004 RMK AO2 SLP170 T02061017 $
KDFW 232053Z 15005KT 10SM SCT250 21/M02 A3004 RMK AO2 SLP170 T02061022 56031 $
KDFW 231953Z 16004KT 10SM FEW250 19/M03 A3006 RMK AO2 SLP177 T01941028 $
KDFW 231853Z 17006KT 10SM FEW250 18/M04 A3009 RMK AO2 SLP186 T01831039 $
KDFW 231753Z 18005KT 10SM R17C/4000VP6000FT FEW250 17/M04 A3014 RMK AO2 SLP202 T01671044 10167 20017 58017 $
KDFW 231653Z 19005KT 10SM FEW250 14/M03 A3016 RMK AO2 SLP212 T01441028 $
KDFW 231553Z 20007KT 10SM FEW250 12/M03 A3018 RMK AO2 SLP217 T01171028 $
KDFW 231453Z 19003KT 10SM FEW250 08/00 A3018 RMK AO2 SLP220 T00780000 53003 $
KDFW 231353Z COR 18004KT 10SM FEW250 04/01 A3018 RMK AO2 SLP220 T00390006 $
KDFW 231253Z 22005KT 10SM FEW250 02/M01 A3017 RMK AO2 SLP216 T00221011 $
KDFW 231153Z 24005KT 10SM CLR 03/M01 A3017 RMK AO2 SLP217 T00331011 10072 20028 58007 $
KDFW 231053Z 19003KT 10SM CLR 03/M02 A3018 RMK AO2 SLP220 T00281017 $
KDFW 230953Z 21003KT 10SM CLR 04/M02 A3019 RMK AO2 SLP222 T00391017 $
KDFW 230853Z 21004KT 10SM CLR 04/M02 A3020 RMK AO2 SLP224 T00391017 58014 $
KDFW 230753Z 00000KT 10SM CLR 06/M03 A3022 RMK AO2 SLP231 T00611033 $
KDFW 230653Z 00000KT 10SM CLR 06/M03 A3023 RMK AO2 SLP236 T00611033 $